Time;durP1;ratioP1;P1;durP2;ratioP2;P2;SDS_P1;SDS_P2;PMS_P1;PMS_P2;Temp;Humidity;BMP_temperature;BMP_pressure;BME280_temperature;BME280_humidity;BME280_pressure;Samples;Min_cycle;Max_cycle;Signal;HPM_P1;HPM_P2
2023/01/13 00:00:30;;;;;;;4.10;3.70;;;10.10;99.90;;;;;;4953632;28;20232;-58
2023/01/13 00:02:59;;;;;;;4.97;3.17;;;10.10;99.90;;;;;;4954162;28;20311;-58
2023/01/13 00:05:27;;;;;;;5.73;2.73;;;10.10;99.90;;;;;;4954372;28;20235;-57
2023/01/13 00:07:55;;;;;;;5.37;2.10;;;10.00;99.90;;;;;;4954067;28;20235;-58
2023/01/13 00:10:23;;;;;;;2.80;1.80;;;10.00;99.90;;;;;;4954203;28;20238;-57
2023/01/13 00:12:52;;;;;;;3.43;1.60;;;9.90;99.90;;;;;;4954420;28;20236;-58
2023/01/13 00:15:20;;;;;;;3.60;1.60;;;9.90;99.90;;;;;;4954564;28;20234;-58
2023/01/13 00:17:48;;;;;;;4.13;1.70;;;9.90;99.90;;;;;;4954410;28;20691;-58
2023/01/13 00:20:18;;;;;;;4.13;1.40;;;9.80;99.90;;;;;;4954287;29;20231;-58
2023/01/13 00:22:46;;;;;;;4.00;1.20;;;9.80;99.90;;;;;;4954346;28;20286;-58
2023/01/13 00:25:14;;;;;;;4.07;1.30;;;9.70;99.90;;;;;;4954112;29;20316;-58
2023/01/13 00:27:42;;;;;;;3.47;1.00;;;9.70;99.90;;;;;;4954305;29;20239;-58
2023/01/13 00:30:11;;;;;;;5.27;1.10;;;9.70;99.90;;;;;;4953730;28;20722;-55
2023/01/13 00:32:40;;;;;;;3.70;1.07;;;9.60;99.90;;;;;;4953970;28;20231;-58
2023/01/13 00:35:08;;;;;;;3.10;1.03;;;9.60;99.90;;;;;;4954102;29;20224;-58
2023/01/13 00:37:38;;;;;;;2.73;1.00;;;9.50;99.90;;;;;;4954107;28;20234;-58
2023/01/13 00:40:07;;;;;;;3.67;0.90;;;9.50;99.90;;;;;;4954368;28;20216;-58
2023/01/13 00:45:21;;;;;;;2.00;0.90;;;9.20;99.90;;;;;;4955711;29;20228;-58
2023/01/13 00:47:49;;;;;;;4.40;1.10;;;9.20;99.90;;;;;;4957385;29;20246;-58
2023/01/13 00:50:17;;;;;;;3.20;0.73;;;9.10;99.90;;;;;;4957917;29;20684;-58
2023/01/13 00:52:46;;;;;;;4.20;0.97;;;9.10;99.90;;;;;;4957609;29;20239;-58
2023/01/13 00:55:14;;;;;;;5.00;1.27;;;9.10;99.90;;;;;;4957617;29;20603;-58
2023/01/13 00:57:42;;;;;;;4.40;1.17;;;9.10;99.90;;;;;;4957432;29;20231;-57
2023/01/13 01:00:11;;;;;;;5.63;1.13;;;9.00;99.90;;;;;;4957232;28;20715;-58
2023/01/13 01:02:39;;;;;;;4.87;1.00;;;8.90;99.90;;;;;;4956770;28;20607;-58
2023/01/13 01:05:08;;;;;;;4.70;1.07;;;8.90;99.90;;;;;;4957079;28;20259;-58
2023/01/13 01:07:36;;;;;;;8.00;1.33;;;8.90;99.90;;;;;;4957135;29;20241;-58
2023/01/13 01:10:07;;;;;;;6.07;1.20;;;8.80;99.90;;;;;;4957134;29;20235;-58
2023/01/13 01:12:35;;;;;;;6.73;1.30;;;8.80;99.90;;;;;;4957151;28;20238;-58
2023/01/13 01:15:04;;;;;;;7.33;1.50;;;8.80;99.90;;;;;;4956885;29;20326;-58
2023/01/13 01:17:33;;;;;;;8.50;1.90;;;8.80;99.90;;;;;;4956859;29;20239;-58
2023/01/13 01:20:01;;;;;;;7.40;1.50;;;8.80;99.90;;;;;;4956958;28;20761;-58
2023/01/13 01:22:29;;;;;;;8.17;1.50;;;8.80;99.90;;;;;;4956825;28;20224;-58
2023/01/13 01:24:57;;;;;;;5.70;1.53;;;8.70;99.90;;;;;;4956973;28;20631;-58
2023/01/13 01:27:27;;;;;;;4.67;1.70;;;8.70;99.90;;;;;;4956704;28;20282;-58
2023/01/13 01:29:55;;;;;;;12.97;1.67;;;8.70;99.90;;;;;;4956571;28;20227;-58
2023/01/13 01:32:23;;;;;;;6.77;1.30;;;8.70;99.90;;;;;;4955995;28;20240;-57
2023/01/13 01:34:51;;;;;;;10.90;1.90;;;8.70;99.90;;;;;;4956619;29;20231;-58
2023/01/13 01:37:19;;;;;;;14.47;2.30;;;8.70;99.90;;;;;;4956842;29;20250;-58
2023/01/13 01:39:47;;;;;;;6.63;1.40;;;8.70;99.90;;;;;;4956560;29;20718;-58
2023/01/13 01:45:13;;;;;;;8.03;2.30;;;8.70;99.90;;;;;;4956364;29;20230;-58
2023/01/13 01:47:42;;;;;;;10.80;1.80;;;8.70;99.90;;;;;;4956646;28;20231;-58
2023/01/13 01:50:11;;;;;;;7.80;2.37;;;8.80;99.90;;;;;;4956717;28;20249;-58
2023/01/13 01:52:44;;;;;;;10.17;2.10;;;8.70;99.90;;;;;;4955912;28;20231;-58
2023/01/13 01:55:15;;;;;;;5.87;1.60;;;8.70;99.90;;;;;;4956603;28;20565;-58
2023/01/13 01:57:46;;;;;;;11.43;2.07;;;8.70;99.90;;;;;;4956288;28;20827;-58
2023/01/13 02:00:16;;;;;;;9.03;2.10;;;8.70;99.90;;;;;;4952517;28;20258;-58
2023/01/13 02:02:47;;;;;;;7.77;1.87;;;8.70;99.90;;;;;;4956048;28;20258;-58
2023/01/13 02:05:16;;;;;;;8.93;1.90;;;8.80;99.90;;;;;;4956319;29;20699;-58
2023/01/13 02:07:46;;;;;;;8.63;1.97;;;8.70;99.90;;;;;;4955917;29;20227;-58
2023/01/13 02:10:17;;;;;;;12.73;2.23;;;8.70;99.90;;;;;;4956314;29;20556;-58
2023/01/13 02:12:46;;;;;;;8.93;2.03;;;8.70;99.90;;;;;;4955961;29;20239;-58
2023/01/13 02:15:17;;;;;;;12.93;2.60;;;8.60;99.90;;;;;;4955890;29;20232;-58
2023/01/13 02:18:09;;;;;;;8.17;1.90;;;8.60;99.90;;;;;;4956021;28;20290;-58
2023/01/13 02:20:54;;;;;;;14.17;2.10;;;8.50;99.90;;;;;;4955740;28;20267;-58
2023/01/13 02:27:36;;;;;;;11.27;2.33;;;8.60;99.90;;;;;;4943434;28;20595;-58
2023/01/13 02:33:21;;;;;;;10.97;2.10;;;8.50;99.90;;;;;;4955351;28;20242;-58
2023/01/13 02:35:52;;;;;;;8.70;2.30;;;8.50;99.90;;;;;;4955480;28;20227;-57
2023/01/13 02:38:25;;;;;;;12.10;2.53;;;8.40;99.90;;;;;;4955771;28;20250;-58
2023/01/13 02:44:05;;;;;;;12.53;2.83;;;8.40;99.90;;;;;;4955502;29;20250;-58
2023/01/13 02:46:45;;;;;;;16.57;2.97;;;8.30;99.90;;;;;;4955545;28;20263;-58
2023/01/13 02:49:21;;;;;;;9.50;2.20;;;8.30;99.90;;;;;;4955133;28;20235;-58
2023/01/13 02:51:51;;;;;;;11.47;2.30;;;8.30;99.90;;;;;;4955162;29;20234;-58
2023/01/13 02:54:23;;;;;;;12.10;2.10;;;8.30;99.90;;;;;;4955318;29;20219;-58
2023/01/13 02:56:54;;;;;;;14.93;2.87;;;8.30;99.90;;;;;;4955140;29;20239;-58
2023/01/13 02:59:25;;;;;;;13.50;2.50;;;8.30;99.90;;;;;;4955339;29;20698;-58
2023/01/13 03:01:56;;;;;;;13.53;2.50;;;8.20;99.90;;;;;;4954376;28;20250;-58
2023/01/13 03:04:47;;;;;;;12.20;3.43;;;8.30;99.90;;;;;;4953940;28;20228;-57
2023/01/13 03:07:48;;;;;;;13.03;2.67;;;8.30;99.90;;;;;;4937930;29;20224;-58
2023/01/13 03:10:27;;;;;;;14.30;2.27;;;8.30;99.90;;;;;;4955274;29;20231;-58
2023/01/13 03:13:03;;;;;;;9.43;1.93;;;8.20;99.90;;;;;;4955146;28;20221;-58
2023/01/13 03:15:39;;;;;;;11.07;2.47;;;8.20;99.90;;;;;;4955126;29;20686;-58
2023/01/13 03:18:19;;;;;;;10.90;2.60;;;8.20;99.90;;;;;;4954773;28;20235;-58
2023/01/13 03:20:54;;;;;;;11.77;2.57;;;8.10;99.90;;;;;;4954689;28;20266;-59
2023/01/13 03:23:30;;;;;;;12.13;2.67;;;8.10;99.90;;;;;;4955289;28;20242;-58
2023/01/13 03:26:05;;;;;;;19.23;2.83;;;8.10;99.90;;;;;;4954408;28;20227;-58
2023/01/13 03:28:39;;;;;;;15.70;2.70;;;8.10;99.90;;;;;;4954670;29;20238;-58
2023/01/13 03:31:14;;;;;;;16.40;3.20;;;8.10;99.90;;;;;;4954282;28;20238;-58
2023/01/13 03:33:48;;;;;;;17.53;3.93;;;8.00;99.90;;;;;;4954820;28;20592;-58
2023/01/13 03:36:19;;;;;;;19.53;3.60;;;8.00;99.90;;;;;;4947515;29;20238;-58
2023/01/13 03:38:51;;;;;;;22.43;3.30;;;8.00;99.90;;;;;;4954546;28;20239;-58
2023/01/13 03:41:23;;;;;;;19.67;4.03;;;8.00;99.90;;;;;;4954642;28;20586;-58
2023/01/13 03:46:49;;;;;;;22.77;4.23;;;7.90;99.90;;;;;;4954698;29;20597;-58
2023/01/13 03:49:22;;;;;;;21.20;4.23;;;7.90;99.90;;;;;;4954817;29;20234;-58
2023/01/13 03:52:01;;;;;;;26.63;3.70;;;7.80;99.90;;;;;;4954714;29;20227;-58
2023/01/13 03:54:33;;;;;;;22.87;4.50;;;7.80;99.90;;;;;;4954357;29;20223;-57
2023/01/13 03:57:06;;;;;;;24.10;3.93;;;7.80;99.90;;;;;;4954660;29;20239;-58
2023/01/13 03:59:39;;;;;;;23.13;3.70;;;7.80;99.90;;;;;;4949504;28;20262;-58
2023/01/13 04:02:10;;;;;;;19.73;3.27;;;7.80;99.90;;;;;;4953654;28;20743;-58
2023/01/13 04:04:45;;;;;;;20.27;3.10;;;7.80;99.90;;;;;;4953928;28;20687;-58
2023/01/13 04:07:20;;;;;;;19.77;3.30;;;7.70;99.90;;;;;;4952882;29;20231;-58
2023/01/13 04:09:50;;;;;;;17.40;3.57;;;7.80;99.90;;;;;;4951479;29;20222;-58
2023/01/13 04:12:26;;;;;;;21.07;3.97;;;7.80;99.90;;;;;;4954066;28;20237;-58
2023/01/13 04:14:55;;;;;;;18.23;3.60;;;7.80;99.90;;;;;;4954124;28;20227;-58
2023/01/13 04:17:23;;;;;;;20.07;3.47;;;7.80;99.90;;;;;;4958306;28;20235;-58
2023/01/13 04:19:52;;;;;;;18.00;3.37;;;7.80;99.90;;;;;;4958362;28;20302;-58
2023/01/13 04:22:20;;;;;;;19.17;3.30;;;7.70;99.90;;;;;;4958039;29;20228;-59
2023/01/13 04:24:48;;;;;;;19.90;3.53;;;7.70;99.90;;;;;;4958061;29;20706;-58
2023/01/13 04:27:16;;;;;;;19.30;3.87;;;7.70;99.90;;;;;;4958114;29;20592;-58
2023/01/13 04:29:44;;;;;;;21.37;3.27;;;7.70;99.90;;;;;;4957555;28;20246;-57
2023/01/13 04:32:12;;;;;;;19.30;4.15;;;7.70;99.90;;;;;;4956451;28;20450;-58
2023/01/13 04:34:40;;;;;;;20.00;4.37;;;7.70;99.90;;;;;;4957649;28;20568;-59
2023/01/13 04:37:10;;;;;;;14.17;4.20;;;7.70;99.90;;;;;;4957757;28;20227;-58
2023/01/13 04:39:38;;;;;;;14.77;3.50;;;7.70;99.90;;;;;;4957849;28;20583;-58
2023/01/13 04:42:06;;;;;;;14.33;3.00;;;7.70;99.90;;;;;;4957591;29;20223;-58
2023/01/13 04:44:34;;;;;;;21.87;3.90;;;7.70;99.90;;;;;;4957322;28;20593;-59
2023/01/13 04:47:03;;;;;;;18.00;3.27;;;7.70;99.90;;;;;;4957783;28;20242;-58
2023/01/13 04:49:32;;;;;;;19.03;3.70;;;7.70;99.90;;;;;;4957713;28;20232;-59
2023/01/13 04:52:01;;;;;;;19.87;4.37;;;7.70;99.90;;;;;;4957522;28;20695;-58
2023/01/13 04:54:30;;;;;;;16.60;3.53;;;7.70;99.90;;;;;;4957219;28;20703;-58
2023/01/13 04:56:58;;;;;;;18.47;3.70;;;7.70;99.90;;;;;;4938485;29;20664;-58
2023/01/13 04:59:26;;;;;;;18.37;3.53;;;7.70;99.90;;;;;;4957202;29;20238;-57
2023/01/13 05:01:54;;;;;;;20.30;3.73;;;7.60;99.90;;;;;;4956818;28;20246;-59
2023/01/13 05:04:22;;;;;;;16.93;3.10;;;7.70;99.90;;;;;;4957250;29;20255;-58
2023/01/13 05:06:50;;;;;;;20.37;4.10;;;7.60;99.90;;;;;;4956975;28;20236;-58
2023/01/13 05:09:18;;;;;;;16.63;3.43;;;7.70;99.90;;;;;;4956525;29;20243;-58
2023/01/13 05:17:22;;;;;;;24.33;4.50;;;7.70;99.90;;;;;;4956953;29;20235;-58
2023/01/13 05:19:50;;;;;;;19.07;3.90;;;7.70;99.90;;;;;;4957256;28;20576;-58
2023/01/13 05:25:23;;;;;;;21.13;4.97;;;7.80;99.90;;;;;;4957112;29;20234;-58
2023/01/13 05:27:54;;;;;;;17.03;3.93;;;7.80;99.90;;;;;;4955752;28;20237;-58
2023/01/13 05:30:25;;;;;;;24.50;4.07;;;7.80;99.90;;;;;;4956302;28;20239;-58
2023/01/13 05:32:53;;;;;;;17.57;4.17;;;7.80;99.90;;;;;;4956810;28;20583;-59
2023/01/13 05:35:22;;;;;;;20.27;3.93;;;7.80;99.90;;;;;;4956327;28;20235;-59
2023/01/13 05:37:50;;;;;;;16.57;3.80;;;7.80;99.90;;;;;;4956541;28;20254;-58
2023/01/13 05:43:23;;;;;;;29.13;4.47;;;7.80;99.90;;;;;;4956548;29;20582;-58
2023/01/13 05:45:56;;;;;;;16.03;3.57;;;7.80;99.90;;;;;;4941382;29;20638;-58
2023/01/13 05:48:26;;;;;;;24.50;3.83;;;7.80;99.90;;;;;;4955679;29;20250;-58
2023/01/13 05:50:54;;;;;;;22.63;4.17;;;7.80;99.90;;;;;;4956063;29;20227;-58
2023/01/13 05:53:23;;;;;;;21.50;3.60;;;7.80;99.90;;;;;;4956453;28;20680;-58
2023/01/13 05:55:51;;;;;;;17.93;3.87;;;7.80;99.90;;;;;;4956607;29;20235;-58
2023/01/13 05:58:22;;;;;;;17.63;4.60;;;7.80;99.90;;;;;;4956135;29;20694;-59
2023/01/13 06:00:51;;;;;;;25.80;5.10;;;7.90;99.90;;;;;;4955925;28;20710;-58
2023/01/13 06:03:20;;;;;;;24.43;4.17;;;7.90;99.90;;;;;;4956323;28;20318;-58
2023/01/13 06:05:50;;;;;;;25.23;4.20;;;7.90;99.90;;;;;;4954944;29;20315;-59
2023/01/13 06:08:18;;;;;;;22.27;4.50;;;7.90;99.90;;;;;;4955945;28;20223;-59
2023/01/13 06:10:46;;;;;;;21.17;4.33;;;7.90;99.90;;;;;;4955803;29;20227;-59
2023/01/13 06:13:14;;;;;;;19.07;3.93;;;7.90;99.90;;;;;;4953014;29;20719;-58
2023/01/13 06:15:44;;;;;;;18.67;3.53;;;7.80;99.90;;;;;;4954655;29;20238;-58
2023/01/13 06:18:12;;;;;;;21.20;4.13;;;7.80;99.90;;;;;;4955498;28;20254;-58
2023/01/13 06:20:40;;;;;;;27.17;4.63;;;7.90;99.90;;;;;;4955450;28;20254;-58
2023/01/13 06:23:09;;;;;;;16.90;4.17;;;7.80;99.90;;;;;;4955105;29;20267;-58
2023/01/13 06:25:45;;;;;;;23.40;4.53;;;7.80;99.90;;;;;;4955930;29;20238;-58
2023/01/13 06:28:14;;;;;;;18.83;4.30;;;7.80;99.90;;;;;;4955612;29;20223;-58
2023/01/13 06:30:46;;;;;;;18.90;3.73;;;7.80;99.90;;;;;;4955182;28;20243;-59
2023/01/13 06:33:17;;;;;;;20.90;4.53;;;7.80;99.90;;;;;;4955553;28;20242;-59
2023/01/13 06:35:50;;;;;;;21.70;4.37;;;7.80;99.90;;;;;;4954757;29;20246;-59
2023/01/13 06:38:20;;;;;;;26.67;4.30;;;7.90;99.90;;;;;;4955605;28;20579;-59
2023/01/13 06:40:49;;;;;;;21.37;4.57;;;7.90;99.90;;;;;;4955125;29;20683;-59
2023/01/13 06:43:17;;;;;;;18.27;4.30;;;7.90;99.90;;;;;;4955783;29;20232;-58
2023/01/13 06:45:49;;;;;;;18.23;3.80;;;7.90;99.90;;;;;;4955217;28;20231;-59
2023/01/13 06:48:18;;;;;;;21.77;4.37;;;7.90;99.90;;;;;;4955509;29;20227;-59
2023/01/13 06:50:46;;;;;;;20.37;4.30;;;7.90;99.90;;;;;;4955516;28;20239;-58
2023/01/13 06:53:14;;;;;;;19.33;5.00;;;7.90;99.90;;;;;;4955258;29;20238;-59
2023/01/13 06:55:42;;;;;;;19.47;4.07;;;7.90;99.90;;;;;;4955333;29;20231;-58
2023/01/13 06:58:10;;;;;;;23.03;4.50;;;7.90;99.90;;;;;;4955088;29;20250;-59
2023/01/13 07:00:38;;;;;;;18.37;3.70;;;7.90;99.90;;;;;;4952697;28;20238;-58
2023/01/13 07:03:13;;;;;;;22.43;4.83;;;8.00;99.90;;;;;;4955002;28;20321;-58
2023/01/13 07:05:43;;;;;;;20.00;4.17;;;8.00;99.90;;;;;;4954772;29;20227;-58
2023/01/13 07:08:11;;;;;;;19.57;4.27;;;8.00;99.90;;;;;;4955314;29;20251;-58
2023/01/13 07:10:39;;;;;;;21.67;3.87;;;7.90;99.90;;;;;;4954744;29;20266;-59
2023/01/13 07:15:57;;;;;;;18.40;3.80;;;7.90;99.90;;;;;;4954762;29;20358;-58
2023/01/13 07:18:27;;;;;;;19.90;4.57;;;7.80;99.90;;;;;;4955094;28;20587;-57
2023/01/13 07:20:57;;;;;;;20.67;4.17;;;7.80;99.90;;;;;;4954935;28;20702;-58
2023/01/13 07:23:26;;;;;;;20.50;3.67;;;7.80;99.90;;;;;;4954657;29;20240;-58
2023/01/13 07:25:55;;;;;;;18.93;4.30;;;7.80;99.90;;;;;;4954961;28;20237;-59
2023/01/13 07:28:24;;;;;;;22.00;4.03;;;7.90;99.90;;;;;;4954941;28;20235;-58
2023/01/13 07:30:53;;;;;;;24.13;4.33;;;7.90;99.90;;;;;;4954483;28;20242;-58
2023/01/13 07:33:21;;;;;;;21.70;4.03;;;8.00;99.90;;;;;;4954595;28;20223;-58
2023/01/13 07:35:56;;;;;;;20.17;4.23;;;7.90;99.90;;;;;;4954448;29;20231;-58
2023/01/13 07:38:24;;;;;;;18.93;4.50;;;8.00;99.90;;;;;;4954900;29;20310;-57
2023/01/13 07:40:52;;;;;;;18.40;4.63;;;8.00;99.90;;;;;;4954605;29;20219;-58
2023/01/13 07:43:32;;;;;;;27.17;4.80;;;8.00;99.90;;;;;;4954675;29;20758;-58
2023/01/13 07:46:01;;;;;;;20.83;4.10;;;8.00;99.90;;;;;;4954823;28;20238;-59
2023/01/13 07:48:31;;;;;;;20.60;4.70;;;7.90;99.90;;;;;;4954387;29;20243;-58
2023/01/13 07:51:04;;;;;;;21.33;4.57;;;8.00;99.90;;;;;;4958491;28;20218;-58
2023/01/13 07:53:32;;;;;;;25.37;5.13;;;8.00;99.90;;;;;;4961061;29;20219;-58
2023/01/13 07:56:02;;;;;;;23.50;4.37;;;8.00;99.90;;;;;;4960988;28;20231;-59
2023/01/13 07:58:30;;;;;;;21.23;4.23;;;8.10;99.90;;;;;;4959590;28;20227;-58
2023/01/13 08:00:58;;;;;;;17.97;3.60;;;8.10;99.90;;;;;;4960284;28;20239;-58
2023/01/13 08:03:27;;;;;;;17.67;3.80;;;8.10;99.90;;;;;;4960565;28;20227;-58
2023/01/13 08:05:55;;;;;;;21.53;3.80;;;8.10;99.90;;;;;;4960963;28;20230;-58
2023/01/13 08:08:24;;;;;;;25.00;4.33;;;8.10;99.90;;;;;;4961104;28;20595;-58
2023/01/13 08:10:52;;;;;;;20.57;4.57;;;8.10;99.90;;;;;;4960786;28;20226;-59
2023/01/13 08:13:21;;;;;;;19.00;3.43;;;8.10;99.90;;;;;;4960979;28;20699;-58
2023/01/13 08:15:51;;;;;;;16.50;3.00;;;8.10;99.90;;;;;;4961075;28;20227;-57
2023/01/13 08:18:21;;;;;;;17.00;3.97;;;8.10;99.90;;;;;;4960658;28;20227;-58
2023/01/13 08:20:51;;;;;;;19.43;4.33;;;8.20;99.90;;;;;;4960441;28;20239;-58
2023/01/13 08:23:20;;;;;;;21.23;4.67;;;8.20;99.90;;;;;;4960713;28;20305;-58
2023/01/13 08:25:50;;;;;;;22.43;3.93;;;8.20;99.90;;;;;;4960288;28;20223;-58
2023/01/13 08:28:18;;;;;;;15.53;3.40;;;8.20;99.90;;;;;;4960792;28;20278;-58
2023/01/13 08:30:47;;;;;;;13.67;3.33;;;8.20;99.90;;;;;;4960190;28;20588;-58
2023/01/13 08:33:16;;;;;;;18.60;3.70;;;8.20;99.90;;;;;;4960406;28;20262;-58
2023/01/13 08:35:44;;;;;;;21.77;3.57;;;8.20;99.90;;;;;;4960599;28;20681;-58
2023/01/13 08:38:12;;;;;;;15.57;3.17;;;8.20;99.90;;;;;;4960270;28;20241;-58
2023/01/13 08:40:40;;;;;;;10.97;3.13;;;8.20;99.90;;;;;;4960584;28;20753;-58
2023/01/13 08:43:09;;;;;;;17.50;3.90;;;8.20;99.90;;;;;;4960523;28;20614;-58
2023/01/13 08:45:38;;;;;;;17.33;3.27;;;8.30;99.90;;;;;;4960191;28;20242;-58
2023/01/13 08:48:06;;;;;;;18.70;3.30;;;8.30;99.90;;;;;;4960511;28;20227;-58
2023/01/13 08:50:34;;;;;;;15.37;2.93;;;8.30;99.90;;;;;;4941361;29;20232;-58
2023/01/13 08:53:02;;;;;;;21.60;3.67;;;8.20;99.90;;;;;;4941261;29;20243;-59
2023/01/13 08:55:30;;;;;;;15.77;3.10;;;8.20;99.90;;;;;;4941002;28;20232;-59
2023/01/13 08:57:58;;;;;;;11.67;2.83;;;8.20;99.90;;;;;;4960131;29;20223;-58
2023/01/13 09:00:44;;;;;;;22.00;3.17;;;8.30;99.90;;;;;;4959661;28;20258;-58
2023/01/13 09:03:12;;;;;;;13.63;3.43;;;8.30;99.90;;;;;;4957358;28;20254;-58
2023/01/13 09:05:40;;;;;;;13.37;2.90;;;8.30;99.90;;;;;;4956965;29;20231;-58
2023/01/13 09:08:08;;;;;;;14.27;3.13;;;8.40;99.90;;;;;;4957308;29;20224;-58
2023/01/13 09:10:39;;;;;;;12.33;3.23;;;8.50;99.90;;;;;;4955799;29;20228;-57
2023/01/13 09:13:10;;;;;;;18.40;2.90;;;8.50;99.90;;;;;;4957006;28;20258;-58
2023/01/13 09:15:39;;;;;;;13.90;2.90;;;8.40;99.90;;;;;;4956806;29;20644;-58
2023/01/13 09:18:09;;;;;;;13.30;2.57;;;8.40;99.90;;;;;;4957243;29;20227;-58
2023/01/13 09:20:37;;;;;;;12.13;2.73;;;8.30;99.90;;;;;;4957104;28;20236;-58
2023/01/13 09:23:06;;;;;;;9.17;2.50;;;8.30;99.90;;;;;;4956942;28;20223;-58
2023/01/13 09:25:37;;;;;;;15.70;2.13;;;8.20;99.90;;;;;;4956416;28;20251;-58
2023/01/13 09:28:07;;;;;;;14.53;2.37;;;8.20;99.90;;;;;;4956974;28;20700;-58
2023/01/13 09:30:36;;;;;;;14.97;2.80;;;8.20;99.90;;;;;;4956242;28;20235;-58
2023/01/13 09:35:51;;;;;;;9.80;2.33;;;8.10;99.90;;;;;;4956483;29;20299;-57
2023/01/13 09:38:19;;;;;;;13.70;2.37;;;8.10;99.90;;;;;;4955565;29;20239;-58
2023/01/13 09:40:49;;;;;;;10.37;2.07;;;8.20;99.90;;;;;;4956573;28;20710;-58
2023/01/13 09:46:42;;;;;;;13.53;2.50;;;8.20;99.90;;;;;;4956566;29;20273;-57
2023/01/13 09:49:04;;;;;;;18.83;2.63;;;8.20;99.90;;;;;;4949484;29;20278;-58
2023/01/13 09:51:39;;;;;;;13.27;2.30;;;8.20;99.90;;;;;;4956415;29;20702;-58
2023/01/13 09:54:14;;;;;;;11.87;2.77;;;8.30;99.90;;;;;;4956257;29;20222;-59
2023/01/13 09:56:43;;;;;;;12.47;2.07;;;8.40;99.90;;;;;;4954117;29;20583;-58
2023/01/13 09:59:12;;;;;;;9.50;2.83;;;8.40;99.90;;;;;;4955920;28;20234;-58
2023/01/13 10:01:50;;;;;;;15.60;4.80;;;8.40;99.90;;;;;;4955102;28;20246;-58
2023/01/13 10:04:18;;;;;;;18.97;5.83;;;8.50;99.90;;;;;;4949517;29;20222;-58
2023/01/13 10:06:55;;;;;;;13.87;3.30;;;8.50;99.90;;;;;;4955722;28;20611;-58
2023/01/13 10:09:27;;;;;;;12.57;2.97;;;8.60;99.90;;;;;;4955885;28;20245;-58
2023/01/13 10:14:51;;;;;;;9.47;2.37;;;8.50;99.90;;;;;;4954292;28;20238;-58
2023/01/13 10:17:25;;;;;;;9.90;2.40;;;8.30;99.90;;;;;;4954536;29;20695;-58
2023/01/13 10:20:02;;;;;;;11.43;2.37;;;8.20;99.90;;;;;;4953729;29;20227;-58
2023/01/13 10:22:51;;;;;;;12.33;2.47;;;8.10;99.90;;;;;;4955998;28;20242;-58
2023/01/13 10:25:36;;;;;;;10.97;2.80;;;8.10;99.90;;;;;;4956143;28;20231;-58
2023/01/13 10:28:10;;;;;;;14.03;2.40;;;8.00;99.90;;;;;;4955216;28;20707;-58
2023/01/13 10:30:41;;;;;;;12.27;2.73;;;8.00;99.90;;;;;;4954897;28;20235;-58
2023/01/13 10:33:14;;;;;;;9.70;2.03;;;8.00;99.90;;;;;;4947181;28;20230;-58
2023/01/13 10:35:57;;;;;;;11.77;2.50;;;8.00;99.90;;;;;;4955409;29;20238;-57
2023/01/13 10:38:30;;;;;;;6.47;2.57;;;8.10;99.90;;;;;;4955364;29;20313;-57
2023/01/13 10:41:00;;;;;;;13.20;2.50;;;8.00;99.90;;;;;;4955810;28;20326;-58
2023/01/13 10:43:29;;;;;;;9.13;2.33;;;8.00;99.90;;;;;;4955108;28;20231;-58
2023/01/13 10:46:01;;;;;;;11.37;2.47;;;8.00;99.90;;;;;;4955433;29;20699;-58
2023/01/13 10:48:38;;;;;;;11.33;2.33;;;7.90;99.90;;;;;;4955205;28;20231;-57
2023/01/13 10:51:11;;;;;;;9.27;2.20;;;8.00;99.90;;;;;;4955679;28;20698;-58
2023/01/13 10:53:52;;;;;;;6.93;1.70;;;8.00;99.90;;;;;;4955245;28;20227;-58
2023/01/13 10:56:23;;;;;;;9.80;2.00;;;8.00;99.90;;;;;;4954401;28;20235;-58
2023/01/13 10:58:51;;;;;;;8.67;2.27;;;8.00;99.90;;;;;;4954076;28;20684;-58
2023/01/13 11:01:26;;;;;;;9.93;2.30;;;8.10;99.90;;;;;;4954321;28;20239;-58
2023/01/13 11:03:55;;;;;;;10.63;2.20;;;8.20;99.90;;;;;;4952886;29;20258;-58
2023/01/13 11:06:26;;;;;;;9.17;2.50;;;8.20;99.90;;;;;;4954967;29;20343;-58
2023/01/13 11:08:57;;;;;;;8.13;1.97;;;8.30;99.90;;;;;;4947617;28;20310;-58
2023/01/13 11:11:36;;;;;;;8.17;2.30;;;8.30;99.90;;;;;;4936009;29;20585;-58
2023/01/13 11:16:58;;;;;;;10.67;2.20;;;8.50;99.90;;;;;;4952924;29;20231;-58
2023/01/13 11:19:30;;;;;;;9.40;1.77;;;8.60;99.90;;;;;;4954478;28;20227;-57
2023/01/13 11:22:05;;;;;;;9.57;2.00;;;8.60;99.90;;;;;;4954385;28;20239;-59
2023/01/13 11:24:40;;;;;;;9.03;2.40;;;8.70;99.90;;;;;;4945728;28;20246;-58
2023/01/13 11:27:16;;;;;;;10.60;2.50;;;8.60;99.90;;;;;;4947381;29;20218;-59
2023/01/13 11:29:59;;;;;;;8.17;2.00;;;8.60;99.90;;;;;;4954566;28;20281;-59
2023/01/13 11:32:30;;;;;;;13.40;2.40;;;8.50;99.90;;;;;;4943917;29;20231;-58
2023/01/13 11:35:03;;;;;;;6.13;1.73;;;8.40;99.90;;;;;;4954839;29;20231;-58
2023/01/13 11:37:36;;;;;;;11.30;2.07;;;8.40;99.90;;;;;;4954553;28;20235;-58
2023/01/13 11:40:13;;;;;;;10.53;2.17;;;8.30;99.90;;;;;;4954365;28;20249;-58
2023/01/13 11:42:48;;;;;;;9.37;2.37;;;8.30;99.90;;;;;;4954434;28;20250;-58
2023/01/13 11:45:21;;;;;;;7.97;2.00;;;8.20;99.90;;;;;;4953970;29;20227;-58
2023/01/13 11:47:56;;;;;;;7.63;2.20;;;8.20;99.90;;;;;;4954086;29;20242;-58
2023/01/13 11:50:32;;;;;;;12.27;2.47;;;8.20;99.90;;;;;;4954623;28;20713;-59
2023/01/13 11:53:27;;;;;;;13.03;2.27;;;8.10;99.90;;;;;;4954427;28;20222;-59
2023/01/13 11:56:09;;;;;;;9.60;2.20;;;8.10;99.90;;;;;;4955091;28;20307;-58
2023/01/13 11:59:22;;;;;;;9.60;2.80;;;8.10;99.90;;;;;;4954173;28;20230;-59
2023/01/13 12:02:11;;;;;;;8.13;2.90;;;8.10;99.90;;;;;;4909466;29;20621;-57
2023/01/13 12:04:48;;;;;;;14.13;2.83;;;8.10;99.90;;;;;;4950705;29;20576;-58
2023/01/13 12:07:19;;;;;;;13.87;2.90;;;8.10;99.90;;;;;;4952931;29;20323;-57
2023/01/13 12:10:02;;;;;;;12.57;2.93;;;8.10;99.90;;;;;;4954110;29;20231;-58
2023/01/13 12:12:48;;;;;;;8.67;2.67;;;8.10;99.90;;;;;;4954025;29;20219;-58
2023/01/13 12:15:56;;;;;;;12.83;3.17;;;8.10;99.90;;;;;;4952337;29;20274;-58
2023/01/13 12:18:51;;;;;;;11.90;3.40;;;8.10;99.90;;;;;;4931704;28;20231;-59
2023/01/13 12:21:21;;;;;;;10.00;3.00;;;8.10;99.90;;;;;;4946797;29;20234;-58
2023/01/13 12:24:00;;;;;;;12.67;2.87;;;8.00;99.90;;;;;;4953570;28;20242;-58
2023/01/13 12:26:33;;;;;;;12.47;3.10;;;8.00;99.90;;;;;;4949658;29;20236;-57
2023/01/13 12:29:06;;;;;;;9.80;2.50;;;8.00;99.90;;;;;;4951012;29;20231;-58
2023/01/13 12:31:36;;;;;;;8.47;2.50;;;8.00;99.90;;;;;;4947672;28;20239;-58
2023/01/13 12:34:20;;;;;;;12.77;2.90;;;8.00;99.90;;;;;;4950070;29;20239;-58
2023/01/13 12:36:57;;;;;;;13.30;2.50;;;8.00;99.90;;;;;;4954446;28;20223;-59
2023/01/13 12:39:33;;;;;;;14.07;2.73;;;8.00;99.90;;;;;;4957957;28;20233;-58
2023/01/13 12:45:21;;;;;;;12.53;2.67;;;8.00;99.90;;;;;;4955947;28;20239;-57
2023/01/13 12:47:50;;;;;;;11.70;2.50;;;7.90;99.90;;;;;;4957606;28;20583;-58
2023/01/13 12:50:42;;;;;;;10.17;2.20;;;8.00;99.90;;;;;;4957367;28;20238;-58
2023/01/13 12:53:32;;;;;;;13.17;2.97;;;8.00;99.90;;;;;;4954835;28;20234;-58
2023/01/13 12:56:21;;;;;;;8.13;2.30;;;8.00;99.90;;;;;;4957160;28;20706;-58
2023/01/13 12:58:49;;;;;;;10.27;2.30;;;8.00;99.90;;;;;;4954051;28;20238;-59
2023/01/13 13:01:35;;;;;;;11.90;2.37;;;8.00;99.90;;;;;;4956586;28;20239;-58
2023/01/13 13:04:11;;;;;;;10.70;2.60;;;8.00;99.90;;;;;;4956903;29;20306;-57
2023/01/13 13:06:42;;;;;;;7.93;2.03;;;8.00;99.90;;;;;;4955542;28;20238;-58
2023/01/13 13:09:20;;;;;;;7.20;2.03;;;8.00;99.90;;;;;;4956845;28;20231;-58
2023/01/13 13:14:59;;;;;;;8.90;2.07;;;8.00;99.90;;;;;;4957250;29;20235;-58
2023/01/13 13:17:42;;;;;;;5.53;1.70;;;8.00;99.90;;;;;;4949039;29;20318;-58
2023/01/13 13:20:49;;;;;;;8.27;1.90;;;8.00;99.90;;;;;;4937948;29;20227;-58
2023/01/13 13:23:43;;;;;;;9.23;1.90;;;8.00;99.90;;;;;;4952628;29;20230;-58
2023/01/13 13:26:23;;;;;;;9.43;1.80;;;8.00;99.90;;;;;;4956848;29;20231;-58
2023/01/13 13:29:16;;;;;;;7.47;2.33;;;8.00;99.90;;;;;;4956640;28;20257;-58
2023/01/13 13:32:23;;;;;;;10.17;2.63;;;8.00;99.90;;;;;;4945298;28;20700;-58
2023/01/13 13:35:05;;;;;;;10.93;2.43;;;7.90;99.90;;;;;;4944217;29;20231;-58
2023/01/13 13:49:13;;;;;;;8.97;2.50;;;7.90;99.90;;;;;;4953026;28;20226;-58
2023/01/13 13:51:47;;;;;;;11.37;2.40;;;7.90;99.90;;;;;;4955711;28;20234;-56
2023/01/13 13:54:19;;;;;;;8.87;2.43;;;7.90;99.90;;;;;;4953769;29;20696;-58
2023/01/13 13:56:49;;;;;;;12.00;2.63;;;7.90;99.90;;;;;;4956113;28;20223;-58
2023/01/13 13:59:21;;;;;;;10.60;2.20;;;8.00;99.90;;;;;;4956297;28;20709;-58
2023/01/13 14:01:59;;;;;;;11.17;2.87;;;8.00;99.90;;;;;;4955374;28;20248;-58
2023/01/13 14:04:29;;;;;;;13.57;2.60;;;8.00;99.90;;;;;;4955947;28;20262;-58
2023/01/13 14:07:01;;;;;;;11.37;2.40;;;8.00;99.90;;;;;;4956441;28;20731;-58
2023/01/13 14:09:39;;;;;;;10.43;2.60;;;7.90;99.90;;;;;;4956306;28;20721;-58
2023/01/13 14:12:17;;;;;;;11.40;3.03;;;7.90;99.90;;;;;;4956421;29;20245;-58
2023/01/13 14:14:46;;;;;;;10.87;2.90;;;7.90;99.90;;;;;;4955764;29;20243;-58
2023/01/13 14:17:24;;;;;;;8.37;2.40;;;7.90;99.90;;;;;;4956281;28;20694;-58
2023/01/13 14:19:55;;;;;;;12.17;2.60;;;8.00;99.90;;;;;;4956020;29;20227;-58